createdAt,value
2022-11-22T00:00:16.972Z,54.07
2022-11-22T00:02:53.685Z,54.30
2022-11-22T00:05:30.406Z,51.33
2022-11-22T00:08:05.439Z,52.63
2022-11-22T00:10:41.205Z,54.37
2022-11-22T00:13:15.347Z,53.10
2022-11-22T00:15:51.814Z,51.97
2022-11-22T00:18:25.523Z,53.03
2022-11-22T00:20:59.053Z,50.77
2022-11-22T00:23:31.008Z,51.17
2022-11-22T00:26:09.730Z,54.93
2022-11-22T00:28:44.257Z,52.87
2022-11-22T00:31:18.092Z,51.13
2022-11-22T00:33:50.441Z,52.87
2022-11-22T00:36:24.333Z,50.20
2022-11-22T00:38:57.484Z,49.43
2022-11-22T00:41:36.897Z,50.67
2022-11-22T00:44:13.514Z,51.80
2022-11-22T00:46:44.109Z,53.10
2022-11-22T00:49:15.209Z,50.60
2022-11-22T00:51:46.179Z,51.30
2022-11-22T00:54:17.257Z,54.47
2022-11-22T00:56:50.552Z,51.87
2022-11-22T00:59:24.835Z,52.33
2022-11-22T01:01:58.434Z,52.13
2022-11-22T01:04:28.656Z,50.03
2022-11-22T01:06:58.892Z,51.10
2022-11-22T01:09:32.213Z,51.40
2022-11-22T01:12:03.173Z,47.20
2022-11-22T01:14:38.485Z,48.27
2022-11-22T01:17:12.440Z,46.60
2022-11-22T01:19:42.211Z,48.53
2022-11-22T01:22:13.166Z,46.47
2022-11-22T01:24:42.129Z,51.93
2022-11-22T01:27:13.547Z,48.00
2022-11-22T01:29:45.909Z,48.97
2022-11-22T01:32:19.749Z,50.13
2022-11-22T01:34:51.752Z,52.80
2022-11-22T01:37:23.091Z,50.90
2022-11-22T01:39:54.400Z,51.53
2022-11-22T01:42:51.945Z,54.07
2022-11-22T01:45:43.451Z,51.13
2022-11-22T01:48:50.983Z,52.47
2022-11-22T01:51:29.032Z,51.80
2022-11-22T01:54:01.481Z,52.70
2022-11-22T01:56:38.380Z,55.40
2022-11-22T01:59:12.507Z,59.10
2022-11-22T02:01:43.150Z,57.27
2022-11-22T02:04:16.213Z,53.20
2022-11-22T02:06:54.247Z,56.70
2022-11-22T02:09:26.127Z,57.50
2022-11-22T02:11:58.335Z,54.40
2022-11-22T02:14:35.230Z,54.83
2022-11-22T02:17:07.767Z,59.30
2022-11-22T02:19:46.835Z,58.73
2022-11-22T02:22:26.943Z,55.87
2022-11-22T02:25:02.396Z,54.63
2022-11-22T02:27:35.879Z,56.23
2022-11-22T02:30:07.676Z,60.13
2022-11-22T02:32:38.855Z,53.27
2022-11-22T02:35:20.024Z,52.23
2022-11-22T02:37:51.660Z,57.53
2022-11-22T02:40:23.919Z,48.63
2022-11-22T02:42:59.052Z,48.03
2022-11-22T02:45:31.928Z,51.10
2022-11-22T02:48:11.246Z,49.73
2022-11-22T02:50:39.956Z,48.40
2022-11-22T02:53:11.755Z,53.33
2022-11-22T02:55:40.583Z,54.37
2022-11-22T02:58:11.539Z,49.80
2022-11-22T03:00:40.530Z,54.07
2022-11-22T03:03:10.432Z,52.73
2022-11-22T03:05:39.181Z,50.80
2022-11-22T03:08:10.319Z,56.97
2022-11-22T03:10:43.865Z,51.50
2022-11-22T03:13:15.264Z,50.63
2022-11-22T03:15:45.423Z,51.97
2022-11-22T03:18:16.120Z,46.17
2022-11-22T03:20:48.646Z,48.53
2022-11-22T03:23:18.018Z,46.63
2022-11-22T03:25:50.718Z,51.07
2022-11-22T03:28:21.457Z,51.50
2022-11-22T03:30:51.114Z,48.73
2022-11-22T03:33:23.429Z,45.27
2022-11-22T03:35:54.154Z,44.07
2022-11-22T03:38:23.365Z,40.87
2022-11-22T03:40:54.403Z,46.60
2022-11-22T03:43:28.325Z,44.07
2022-11-22T03:46:00.564Z,40.00
2022-11-22T03:48:33.542Z,41.37
2022-11-22T03:51:08.405Z,46.00
2022-11-22T03:53:37.929Z,45.40
2022-11-22T03:56:09.318Z,46.60
2022-11-22T03:58:44.748Z,45.87
2022-11-22T04:01:16.773Z,46.83
2022-11-22T04:03:47.556Z,47.97
2022-11-22T04:06:16.683Z,46.10
2022-11-22T04:08:50.202Z,47.37
2022-11-22T04:11:23.754Z,47.30
2022-11-22T04:14:12.631Z,41.43
2022-11-22T04:16:46.190Z,41.73
2022-11-22T04:19:15.626Z,42.10
2022-11-22T04:21:45.571Z,45.37
2022-11-22T04:24:32.573Z,42.97
2022-11-22T04:27:01.242Z,40.57
2022-11-22T04:29:37.033Z,45.93
2022-11-22T04:32:34.068Z,43.50
2022-11-22T04:35:05.739Z,41.07
2022-11-22T04:37:36.167Z,44.10
2022-11-22T04:40:09.640Z,45.93
2022-11-22T04:42:59.485Z,44.23
2022-11-22T04:45:30.793Z,43.10
2022-11-22T04:48:04.916Z,44.37
2022-11-22T04:50:51.383Z,42.33
2022-11-22T04:53:22.182Z,41.10
2022-11-22T04:55:52.539Z,45.27
2022-11-22T04:58:21.477Z,45.37
2022-11-22T05:00:55.528Z,43.67
2022-11-22T05:03:36.593Z,41.30
2022-11-22T05:06:07.753Z,42.15
2022-11-22T05:08:40.005Z,47.57
2022-11-22T05:11:09.765Z,48.90
2022-11-22T05:13:44.035Z,46.17
2022-11-22T05:16:17.660Z,46.60
2022-11-22T05:18:59.454Z,41.67
2022-11-22T05:21:31.523Z,45.77
2022-11-22T05:24:03.443Z,43.20
2022-11-22T05:26:36.071Z,43.30
2022-11-22T05:29:06.953Z,42.23
2022-11-22T05:31:39.222Z,40.33
2022-11-22T05:34:09.293Z,38.95
2022-11-22T05:36:38.328Z,36.60
2022-11-22T05:39:06.952Z,45.03
2022-11-22T05:41:35.791Z,46.23
2022-11-22T05:44:05.168Z,45.17
2022-11-22T05:46:33.860Z,42.93
2022-11-22T05:49:03.987Z,44.60
2022-11-22T05:51:34.998Z,41.37
2022-11-22T05:54:05.152Z,44.23
2022-11-22T05:56:36.844Z,43.55
2022-11-22T05:59:05.770Z,46.33
2022-11-22T06:01:34.569Z,42.35
2022-11-22T06:04:04.636Z,35.97
2022-11-22T06:06:33.644Z,48.93
2022-11-22T06:09:02.283Z,47.03
2022-11-22T06:11:31.515Z,44.13
2022-11-22T06:14:03.441Z,46.07
2022-11-22T06:16:32.655Z,44.70
2022-11-22T06:19:01.787Z,45.43
2022-11-22T06:21:32.269Z,45.97
2022-11-22T06:24:00.970Z,49.67
2022-11-22T06:26:32.420Z,48.77
2022-11-22T06:29:03.701Z,46.97
2022-11-22T06:31:32.880Z,47.07
2022-11-22T06:34:02.290Z,47.63
2022-11-22T06:36:33.712Z,48.20
2022-11-22T06:39:03.904Z,48.93
2022-11-22T06:41:35.610Z,48.53
2022-11-22T06:44:06.910Z,48.93
2022-11-22T06:46:35.910Z,51.63
2022-11-22T06:49:04.844Z,47.27
2022-11-22T06:51:35.690Z,50.27
2022-11-22T06:54:04.275Z,49.77
2022-11-22T06:56:34.381Z,49.90
2022-11-22T06:59:04.872Z,49.23
2022-11-22T07:01:34.414Z,48.60
2022-11-22T07:04:03.760Z,53.07
2022-11-22T07:06:37.338Z,51.00
2022-11-22T07:09:09.087Z,47.63
2022-11-22T07:11:38.574Z,52.43
2022-11-22T07:14:09.033Z,51.33
2022-11-22T07:16:39.563Z,51.37
2022-11-22T07:19:08.890Z,50.83
2022-11-22T07:21:39.124Z,53.67
2022-11-22T07:24:09.168Z,50.47
2022-11-22T07:26:37.742Z,50.97
2022-11-22T07:29:06.654Z,53.63
2022-11-22T07:31:35.577Z,51.67
2022-11-22T07:34:04.195Z,55.90
2022-11-22T07:36:33.132Z,50.27
2022-11-22T07:39:05.592Z,52.00
2022-11-22T07:41:34.666Z,51.23
2022-11-22T07:44:03.379Z,51.37
2022-11-22T07:46:33.389Z,50.73
2022-11-22T07:49:03.363Z,51.60
2022-11-22T07:51:32.676Z,51.13
2022-11-22T07:54:02.681Z,52.83
2022-11-22T07:56:31.278Z,53.17
2022-11-22T07:59:00.244Z,52.33
2022-11-22T08:01:28.894Z,52.03
2022-11-22T08:03:58.411Z,52.13
2022-11-22T08:06:27.060Z,54.23
2022-11-22T08:09:01.565Z,52.67
2022-11-22T08:11:32.364Z,50.07
2022-11-22T08:14:01.303Z,50.37
2022-11-22T08:16:29.918Z,54.07
2022-11-22T08:18:58.821Z,54.20
2022-11-22T08:21:27.420Z,54.23
2022-11-22T08:24:00.024Z,53.73
2022-11-22T08:26:28.796Z,53.13
2022-11-22T08:28:58.849Z,54.63
2022-11-22T08:31:29.974Z,58.80
2022-11-22T08:33:58.864Z,54.57
2022-11-22T08:36:28.358Z,54.13
2022-11-22T08:38:57.294Z,52.13
2022-11-22T08:41:26.661Z,55.23
2022-11-22T08:43:55.491Z,51.20
2022-11-22T08:46:25.573Z,53.40
2022-11-22T08:48:54.791Z,53.70
2022-11-22T08:51:23.424Z,55.93
2022-11-22T08:53:52.013Z,53.10
2022-11-22T08:56:20.745Z,53.33
2022-11-22T08:58:49.508Z,50.33
2022-11-22T09:01:19.606Z,50.20
2022-11-22T09:03:50.055Z,51.20
2022-11-22T09:11:58.541Z,52.00
2022-11-22T09:14:27.198Z,50.20
2022-11-22T09:16:55.955Z,54.40
2022-11-22T09:19:26.491Z,52.83
2022-11-22T09:21:55.136Z,52.10
2022-11-22T09:24:23.864Z,56.33
2022-11-22T09:26:52.754Z,48.43
2022-11-22T09:29:21.380Z,55.63
2022-11-22T09:31:50.272Z,56.07
2022-11-22T09:34:18.968Z,56.47
2022-11-22T09:36:49.058Z,55.70
2022-11-22T09:39:17.838Z,55.77
2022-11-22T09:42:12.966Z,53.37
2022-11-22T09:44:57.429Z,55.27
2022-11-22T09:47:35.944Z,52.37
2022-11-22T09:50:16.084Z,61.53
2022-11-22T09:52:52.492Z,60.17
2022-11-22T09:55:26.723Z,58.77
2022-11-22T09:58:06.560Z,55.53
2022-11-22T10:00:36.366Z,57.17
2022-11-22T10:03:12.655Z,56.73
2022-11-22T10:05:50.467Z,53.63
2022-11-22T10:08:35.245Z,55.70
2022-11-22T10:11:12.252Z,55.37
2022-11-22T10:13:47.774Z,53.57
2022-11-22T10:16:19.877Z,60.43
2022-11-22T10:18:56.298Z,53.07
2022-11-22T10:21:25.039Z,57.57
2022-11-22T10:23:55.648Z,58.23
2022-11-22T10:26:27.950Z,53.53
2022-11-22T10:29:13.598Z,59.23
2022-11-22T10:31:49.950Z,55.60
2022-11-22T10:34:28.663Z,56.37
2022-11-22T10:37:08.436Z,60.60
2022-11-22T10:39:53.814Z,59.33
2022-11-22T10:42:37.727Z,56.77
2022-11-22T10:45:18.802Z,56.00
2022-11-22T10:47:58.120Z,63.30
2022-11-22T10:50:35.820Z,68.23
2022-11-22T10:53:14.187Z,59.97
2022-11-22T10:55:55.477Z,54.30
2022-11-22T10:58:35.437Z,53.10
2022-11-22T11:01:11.977Z,49.57
2022-11-22T11:03:44.888Z,47.20
2022-11-22T11:06:26.771Z,49.33
2022-11-22T11:10:02.871Z,46.70
2022-11-22T11:12:06.177Z,48.83
2022-11-22T11:14:39.254Z,42.67
2022-11-22T11:17:08.486Z,42.90
2022-11-22T11:19:40.776Z,42.40
2022-11-22T11:22:30.472Z,42.53
2022-11-22T11:25:30.941Z,43.90
2022-11-22T11:28:11.015Z,49.20
2022-11-22T11:30:44.810Z,43.87
2022-11-22T11:33:25.416Z,41.67
2022-11-22T11:35:57.168Z,41.33
2022-11-22T11:38:38.685Z,38.37
2022-11-22T11:41:26.651Z,42.37
2022-11-22T11:43:58.316Z,42.07
2022-11-22T11:46:28.977Z,39.43
2022-11-22T11:49:09.847Z,38.87
2022-11-22T11:51:41.049Z,40.30
2022-11-22T11:54:13.444Z,40.10
2022-11-22T11:56:47.758Z,39.23
2022-11-22T11:59:20.391Z,39.87
2022-11-22T12:01:55.720Z,39.50
2022-11-22T12:04:27.375Z,39.83
2022-11-22T12:07:04.233Z,41.00
2022-11-22T12:09:36.113Z,38.30
2022-11-22T12:12:24.351Z,38.17
2022-11-22T12:15:12.352Z,41.17
2022-11-22T12:17:48.909Z,41.00
2022-11-22T12:20:22.276Z,36.45
2022-11-22T12:23:12.121Z,34.97
2022-11-22T12:25:42.352Z,39.63
2022-11-22T12:28:19.552Z,36.53
2022-11-22T12:30:55.407Z,37.93
2022-11-22T12:33:29.384Z,39.43
2022-11-22T12:35:59.473Z,39.43
2022-11-22T12:38:33.826Z,36.80
2022-11-22T12:41:07.590Z,38.80
2022-11-22T12:43:39.639Z,34.20
2022-11-22T12:46:15.304Z,38.40
2022-11-22T12:48:49.962Z,39.37
2022-11-22T12:51:29.449Z,37.57
2022-11-22T12:54:02.197Z,38.70
2022-11-22T12:56:34.676Z,36.27
2022-11-22T12:59:13.968Z,41.30
2022-11-22T13:01:50.867Z,38.80
2022-11-22T13:04:28.178Z,34.37
2022-11-22T13:07:04.534Z,37.20
2022-11-22T13:09:36.917Z,35.50
2022-11-22T13:12:10.536Z,33.40
2022-11-22T13:14:43.653Z,32.73
2022-11-22T13:17:17.013Z,29.93
2022-11-22T13:19:50.991Z,35.20
2022-11-22T13:22:29.483Z,33.73
2022-11-22T13:25:14.474Z,33.60
2022-11-22T13:27:46.695Z,34.20
2022-11-22T13:30:24.237Z,31.17
2022-11-22T13:32:56.103Z,31.93
2022-11-22T13:35:31.052Z,38.57
2022-11-22T13:38:02.807Z,37.63
2022-11-22T13:40:35.026Z,36.93
2022-11-22T13:43:50.818Z,41.13
2022-11-22T13:47:03.530Z,38.50
2022-11-22T13:49:48.668Z,39.00
2022-11-22T13:52:49.330Z,43.90
2022-11-22T13:55:42.527Z,40.57
2022-11-22T13:58:55.969Z,39.93
2022-11-22T14:02:00.826Z,37.70
2022-11-22T14:04:54.332Z,29.70
2022-11-22T14:07:33.220Z,26.43
2022-11-22T14:10:03.912Z,30.97
2022-11-22T14:12:55.773Z,40.30
2022-11-22T14:15:36.221Z,40.73
2022-11-22T14:18:34.291Z,36.23
2022-11-22T14:21:06.933Z,35.67
2022-11-22T14:23:52.047Z,37.43
2022-11-22T14:26:29.485Z,37.30
2022-11-22T14:29:22.925Z,35.03
2022-11-22T14:32:02.664Z,38.90
2022-11-22T14:34:33.043Z,35.17
2022-11-22T14:37:45.950Z,34.67
2022-11-22T14:40:34.694Z,32.70
2022-11-22T14:43:21.071Z,37.83
2022-11-22T14:45:52.882Z,36.97
2022-11-22T14:48:23.245Z,36.10
2022-11-22T14:51:01.464Z,36.67
2022-11-22T14:53:38.417Z,34.37
2022-11-22T14:56:12.832Z,37.70
2022-11-22T14:58:47.816Z,35.60
2022-11-22T15:01:54.062Z,34.30
2022-11-22T15:09:09.901Z,34.23
2022-11-22T15:09:16.121Z,34.03
2022-11-22T15:11:25.877Z,32.13
2022-11-22T15:14:24.235Z,36.00
2022-11-22T15:57:34.521Z,51.67
2022-11-22T16:00:03.526Z,39.43
2022-11-22T16:02:33.725Z,41.80
2022-11-22T16:06:09.337Z,45.97
2022-11-22T16:07:54.713Z,42.00
2022-11-22T16:10:26.956Z,48.43
2022-11-22T16:12:55.975Z,48.30
2022-11-22T16:15:29.361Z,47.07
2022-11-22T16:18:09.083Z,47.90
2022-11-22T16:20:38.812Z,41.13
2022-11-22T16:23:26.635Z,42.33
2022-11-22T16:25:59.312Z,40.60
2022-11-22T16:28:38.499Z,36.57
2022-11-22T16:31:19.898Z,35.63
2022-11-22T16:33:51.832Z,35.60
2022-11-22T16:36:31.401Z,37.73
2022-11-22T16:39:00.058Z,37.37
2022-11-22T16:41:32.878Z,39.87
2022-11-22T16:44:10.399Z,42.43
2022-11-22T16:46:39.030Z,40.33
2022-11-22T16:49:19.901Z,43.43
2022-11-22T16:51:51.416Z,50.17
2022-11-22T16:54:23.984Z,45.17
2022-11-22T16:56:52.816Z,43.73
2022-11-22T16:59:21.409Z,50.07
2022-11-22T17:01:50.392Z,43.73
2022-11-22T17:04:24.370Z,41.43
2022-11-22T17:06:53.637Z,43.53
2022-11-22T17:09:23.886Z,46.77
2022-11-22T17:11:53.023Z,45.23
2022-11-22T17:14:21.856Z,43.43
2022-11-22T17:16:50.695Z,44.70
2022-11-22T17:19:45.472Z,41.33
2022-11-22T17:22:10.140Z,43.37
2022-11-22T17:24:38.804Z,41.97
2022-11-22T17:27:07.611Z,41.03
2022-11-22T17:29:50.438Z,39.67
2022-11-22T17:32:20.011Z,38.57
2022-11-22T17:34:48.623Z,45.67
2022-11-22T17:37:18.771Z,40.50
2022-11-22T17:39:48.336Z,39.13
2022-11-22T17:42:18.457Z,41.50
2022-11-22T17:44:47.286Z,42.50
2022-11-22T17:47:16.022Z,42.30
2022-11-22T17:49:45.351Z,44.87
2022-11-22T17:52:14.161Z,39.40
2022-11-22T17:54:44.394Z,42.80
2022-11-22T17:57:13.738Z,38.27
2022-11-22T17:59:44.005Z,39.23
2022-11-22T18:02:13.268Z,40.37
2022-11-22T18:04:44.722Z,39.73
2022-11-22T18:07:13.404Z,39.53
2022-11-22T18:09:43.884Z,42.10
2022-11-22T18:12:12.643Z,39.93
2022-11-22T18:14:41.449Z,41.60
2022-11-22T18:17:10.203Z,44.03
2022-11-22T18:19:38.862Z,48.07
2022-11-22T18:22:07.812Z,40.97
2022-11-22T18:24:36.648Z,47.23
2022-11-22T18:27:06.900Z,38.77
2022-11-22T18:29:43.166Z,38.93
2022-11-22T18:32:15.809Z,40.57
2022-11-22T18:34:44.573Z,37.00
2022-11-22T18:37:13.286Z,37.23
2022-11-22T18:39:41.920Z,40.23
2022-11-22T18:42:15.160Z,38.33
2022-11-22T18:44:46.464Z,41.73
2022-11-22T18:47:15.059Z,40.60
2022-11-22T18:49:43.692Z,42.23
2022-11-22T18:52:14.962Z,39.23
2022-11-22T18:54:46.835Z,42.13
2022-11-22T18:57:16.982Z,42.63
2022-11-22T18:59:45.758Z,44.87
2022-11-22T19:02:14.479Z,42.10
2022-11-22T19:04:43.322Z,47.90
2022-11-22T19:07:14.411Z,43.63
2022-11-22T19:09:43.135Z,44.47
2022-11-22T19:12:12.551Z,45.97
2022-11-22T19:14:43.190Z,47.17
2022-11-22T19:17:11.973Z,44.40
2022-11-22T19:19:40.651Z,45.07
2022-11-22T19:22:09.628Z,48.73
2022-11-22T19:24:38.391Z,54.87
2022-11-22T19:27:07.095Z,48.70
2022-11-22T19:29:35.980Z,52.93
2022-11-22T19:32:06.573Z,51.60
2022-11-22T19:34:35.206Z,47.90
2022-11-22T19:37:03.960Z,48.50
2022-11-22T19:39:33.061Z,46.83
2022-11-22T19:42:02.270Z,49.57
2022-11-22T19:44:31.801Z,53.73
2022-11-22T19:47:00.429Z,50.40
2022-11-22T19:49:31.068Z,49.97
2022-11-22T19:51:59.962Z,50.10
2022-11-22T19:54:28.592Z,51.93
2022-11-22T19:56:57.334Z,53.40
2022-11-22T19:59:26.144Z,50.93
2022-11-22T20:01:54.837Z,53.47
2022-11-22T20:04:23.506Z,51.67
2022-11-22T20:06:53.558Z,48.70
2022-11-22T20:09:23.111Z,49.63
2022-11-22T20:11:51.943Z,50.77
2022-11-22T20:14:20.799Z,52.57
2022-11-22T20:16:49.678Z,51.07
2022-11-22T20:19:18.352Z,48.60
2022-11-22T20:21:49.664Z,48.87
2022-11-22T20:24:19.790Z,45.40
2022-11-22T20:26:48.516Z,48.60
2022-11-22T20:29:17.872Z,49.77
2022-11-22T20:31:46.610Z,48.57
2022-11-22T20:34:16.031Z,55.43
2022-11-22T20:36:44.788Z,49.53
2022-11-22T20:39:13.673Z,49.00
2022-11-22T20:41:43.980Z,49.70
2022-11-22T20:44:14.872Z,57.50
2022-11-22T20:46:44.660Z,50.20
2022-11-22T20:49:13.842Z,53.17
2022-11-22T20:51:43.317Z,46.87
2022-11-22T20:54:12.150Z,53.80
2022-11-22T20:56:40.992Z,51.90
2022-11-22T20:59:14.456Z,45.40
2022-11-22T21:01:44.519Z,47.57
2022-11-22T21:04:20.393Z,54.23
2022-11-22T21:06:49.176Z,52.10
2022-11-22T21:09:18.056Z,48.13
2022-11-22T21:11:48.285Z,43.33
2022-11-22T21:14:18.446Z,48.23
2022-11-22T21:16:47.249Z,47.70
2022-11-22T21:19:16.305Z,51.13
2022-11-22T21:21:44.920Z,54.03
2022-11-22T21:24:15.279Z,50.70
2022-11-22T21:26:44.205Z,54.30
2022-11-22T21:29:16.784Z,47.30
2022-11-22T21:31:47.274Z,48.37
2022-11-22T21:34:16.675Z,49.33
2022-11-22T21:36:45.320Z,44.77
2022-11-22T21:39:14.198Z,49.30
2022-11-22T21:41:43.272Z,55.47
2022-11-22T21:44:12.227Z,48.57
2022-11-22T21:46:41.344Z,50.83
2022-11-22T21:49:11.379Z,52.10
2022-11-22T21:51:40.223Z,47.00
2022-11-22T21:54:09.010Z,54.37
2022-11-22T21:56:37.967Z,47.30
2022-11-22T21:59:06.785Z,51.77
2022-11-22T22:01:35.737Z,50.73
2022-11-22T22:04:04.606Z,52.07
2022-11-22T22:06:34.736Z,47.43
2022-11-22T22:09:03.832Z,43.10
2022-11-22T22:11:32.664Z,47.23
2022-11-22T22:14:01.542Z,49.70
2022-11-22T22:16:30.179Z,53.10
2022-11-22T22:19:01.921Z,52.50
2022-11-22T22:21:34.724Z,51.77
2022-11-22T22:24:03.956Z,54.63
2022-11-22T22:26:33.572Z,52.47
2022-11-22T22:29:02.171Z,51.73
2022-11-22T22:31:30.795Z,49.10
2022-11-22T22:33:59.571Z,49.90
2022-11-22T22:36:28.852Z,48.53
2022-11-22T22:38:58.942Z,50.73
2022-11-22T22:41:28.035Z,32.50
2022-11-22T22:43:56.747Z,48.57
2022-11-22T22:46:26.059Z,48.93
2022-11-22T22:48:56.509Z,51.47
2022-11-22T22:51:32.450Z,49.20
2022-11-22T22:54:04.003Z,49.63
2022-11-22T22:56:33.285Z,49.13
2022-11-22T22:59:02.368Z,49.40
2022-11-22T23:01:32.442Z,49.60
2022-11-22T23:04:03.661Z,45.57
2022-11-22T23:06:34.265Z,49.17
2022-11-22T23:09:06.594Z,51.23
2022-11-22T23:11:53.443Z,33.35
2022-11-22T23:14:23.929Z,31.63
2022-11-22T23:16:57.392Z,55.80
2022-11-22T23:19:27.651Z,52.60
2022-11-22T23:21:56.608Z,56.97
2022-11-22T23:24:26.619Z,48.67
2022-11-22T23:26:55.344Z,51.23
2022-11-22T23:29:23.973Z,44.80
2022-11-22T23:31:52.898Z,45.33
2022-11-22T23:34:21.904Z,47.73
2022-11-22T23:36:50.617Z,44.87
2022-11-22T23:39:19.241Z,44.93
2022-11-22T23:41:49.527Z,43.77
2022-11-22T23:44:18.155Z,51.40
2022-11-22T23:46:46.774Z,47.87
2022-11-22T23:49:15.379Z,47.73
2022-11-22T23:51:44.024Z,40.83
2022-11-22T23:54:12.871Z,44.33
2022-11-22T23:56:41.689Z,41.93
2022-11-22T23:59:12.366Z,41.60
